sensor_id;sensor_type;location;lat;lon;timestamp;pressure;altitude;pressure_sealevel;temperature;humidity
69766;BME280;57039;48.014;21.384;2024-03-02T00:00:16;99961.00;;;11.10;100.00
69766;BME280;57039;48.014;21.384;2024-03-02T00:01:19;100033.87;;;11.46;100.00
69766;BME280;57039;48.014;21.384;2024-03-02T00:02:22;100014.75;;;11.44;100.00
69766;BME280;57039;48.014;21.384;2024-03-02T00:03:25;100026.94;;;11.45;100.00
69766;BME280;57039;48.014;21.384;2024-03-02T00:04:28;100028.84;;;11.43;100.00
69766;BME280;57039;48.014;21.384;2024-03-02T00:05:31;100030.59;;;11.42;100.00
69766;BME280;57039;48.014;21.384;2024-03-02T00:06:34;100028.84;;;11.43;100.00
69766;BME280;57039;48.014;21.384;2024-03-02T00:07:40;100032.38;;;11.42;100.00
69766;BME280;57039;48.014;21.384;2024-03-02T00:08:44;100030.59;;;11.42;100.00
69766;BME280;57039;48.014;21.384;2024-03-02T00:09:46;100021.03;;;11.41;100.00
69766;BME280;57039;48.014;21.384;2024-03-02T00:10:49;100018.41;;;11.41;100.00
69766;BME280;57039;48.014;21.384;2024-03-02T00:11:53;100024.22;;;11.47;100.00
69766;BME280;57039;48.014;21.384;2024-03-02T00:12:56;100032.19;;;11.45;100.00
69766;BME280;57039;48.014;21.384;2024-03-02T00:13:59;100021.78;;;11.43;100.00
69766;BME280;57039;48.014;21.384;2024-03-02T00:15:16;100026.28;;;11.41;100.00
69766;BME280;57039;48.014;21.384;2024-03-02T00:16:32;100021.88;;;11.42;100.00
69766;BME280;57039;48.014;21.384;2024-03-02T00:17:35;100021.88;;;11.42;100.00
69766;BME280;57039;48.014;21.384;2024-03-02T00:18:38;100006.72;;;11.33;100.00
69766;BME280;57039;48.014;21.384;2024-03-02T00:19:41;100022.41;;;11.34;100.00
69766;BME280;57039;48.014;21.384;2024-03-02T00:20:44;100028.16;;;11.39;100.00
69766;BME280;57039;48.014;21.384;2024-03-02T00:21:47;100026.50;;;11.38;100.00
69766;BME280;57039;48.014;21.384;2024-03-02T00:22:50;100028.28;;;11.38;100.00
69766;BME280;57039;48.014;21.384;2024-03-02T00:23:54;100023.13;;;11.36;100.00
69766;BME280;57039;48.014;21.384;2024-03-02T00:24:56;100011.78;;;11.36;100.00
69766;BME280;57039;48.014;21.384;2024-03-02T00:26:00;100011.78;;;11.36;100.00
69766;BME280;57039;48.014;21.384;2024-03-02T00:27:07;100014.53;;;11.34;100.00
69766;BME280;57039;48.014;21.384;2024-03-02T00:28:13;100009.16;;;11.36;100.00
69766;BME280;57039;48.014;21.384;2024-03-02T00:29:17;100010.09;;;11.35;100.00
69766;BME280;57039;48.014;21.384;2024-03-02T00:30:42;100013.69;;;11.34;100.00
69766;BME280;57039;48.014;21.384;2024-03-02T00:31:47;100006.53;;;11.36;100.00
69766;BME280;57039;48.014;21.384;2024-03-02T00:32:51;100004.75;;;11.36;100.00
69766;BME280;57039;48.014;21.384;2024-03-02T00:34:05;100005.06;;;11.32;100.00
69766;BME280;57039;48.014;21.384;2024-03-02T00:35:08;99998.12;;;11.31;100.00
69766;BME280;57039;48.014;21.384;2024-03-02T00:36:14;100002.31;;;11.33;100.00
69766;BME280;57039;48.014;21.384;2024-03-02T00:37:17;99938.38;;;10.94;100.00
69766;BME280;57039;48.014;21.384;2024-03-02T00:38:20;99992.87;;;11.31;100.00
69766;BME280;57039;48.014;21.384;2024-03-02T00:39:24;100007.13;;;11.27;100.00
69766;BME280;57039;48.014;21.384;2024-03-02T00:40:28;100001.69;;;11.30;100.00
69766;BME280;57039;48.014;21.384;2024-03-02T00:41:32;100010.31;;;11.32;100.00
69766;BME280;57039;48.014;21.384;2024-03-02T00:42:35;100000.75;;;11.31;100.00
69766;BME280;57039;48.014;21.384;2024-03-02T00:44:59;100002.53;;;11.30;100.00
69766;BME280;57039;48.014;21.384;2024-03-02T00:46:02;99998.12;;;11.31;100.00
69766;BME280;57039;48.014;21.384;2024-03-02T00:47:05;99995.59;;;11.29;100.00
69766;BME280;57039;48.014;21.384;2024-03-02T00:48:08;99962.97;;;11.06;100.00
69766;BME280;57039;48.014;21.384;2024-03-02T00:50:23;99993.25;;;11.25;100.00
69766;BME280;57039;48.014;21.384;2024-03-02T00:51:34;100001.88;;;11.27;100.00
69766;BME280;57039;48.014;21.384;2024-03-02T00:52:37;100011.47;;;11.28;100.00
69766;BME280;57039;48.014;21.384;2024-03-02T00:53:40;100014.09;;;11.28;100.00
69766;BME280;57039;48.014;21.384;2024-03-02T00:54:43;100007.13;;;11.27;100.00
69766;BME280;57039;48.014;21.384;2024-03-02T00:55:47;100015.03;;;11.27;100.00
69766;BME280;57039;48.014;21.384;2024-03-02T00:56:54;100013.34;;;11.26;100.00
69766;BME280;57039;48.014;21.384;2024-03-02T00:57:58;100015.12;;;11.25;100.00
69766;BME280;57039;48.014;21.384;2024-03-02T00:59:01;100017.75;;;11.25;100.00
69766;BME280;57039;48.014;21.384;2024-03-02T01:00:05;100012.50;;;11.25;100.00
69766;BME280;57039;48.014;21.384;2024-03-02T01:01:14;100012.59;;;11.24;100.00
69766;BME280;57039;48.014;21.384;2024-03-02T01:02:17;100012.59;;;11.24;100.00
69766;BME280;57039;48.014;21.384;2024-03-02T01:03:22;100010.81;;;11.24;100.00
69766;BME280;57039;48.014;21.384;2024-03-02T01:04:25;100006.31;;;11.26;100.00
69766;BME280;57039;48.014;21.384;2024-03-02T01:05:28;100009.03;;;11.25;100.00
69766;BME280;57039;48.014;21.384;2024-03-02T01:06:31;100002.09;;;11.24;100.00
69766;BME280;57039;48.014;21.384;2024-03-02T01:07:34;99998.50;;;11.25;100.00
69766;BME280;57039;48.014;21.384;2024-03-02T01:08:38;99991.59;;;11.24;100.00
69766;BME280;57039;48.014;21.384;2024-03-02T01:09:41;99982.66;;;11.13;100.00
69766;BME280;57039;48.014;21.384;2024-03-02T01:10:44;99969.53;;;11.13;100.00
69766;BME280;57039;48.014;21.384;2024-03-02T01:11:47;99987.38;;;11.21;100.00
69766;BME280;57039;48.014;21.384;2024-03-02T01:12:50;99981.28;;;11.20;100.00
69766;BME280;57039;48.014;21.384;2024-03-02T01:13:52;99981.28;;;11.20;100.00
69766;BME280;57039;48.014;21.384;2024-03-02T01:14:55;99983.91;;;11.20;100.00
69766;BME280;57039;48.014;21.384;2024-03-02T01:15:59;99982.25;;;11.19;100.00
69766;BME280;57039;48.014;21.384;2024-03-02T01:17:02;99990.22;;;11.18;100.00
69766;BME280;57039;48.014;21.384;2024-03-02T01:18:07;99991.03;;;11.18;100.00
69766;BME280;57039;48.014;21.384;2024-03-02T01:19:10;99986.75;;;11.17;100.00
69766;BME280;57039;48.014;21.384;2024-03-02T01:20:13;99986.75;;;11.17;100.00
69766;BME280;57039;48.014;21.384;2024-03-02T01:21:16;99991.16;;;11.17;100.00
69766;BME280;57039;48.014;21.384;2024-03-02T01:22:19;99993.03;;;11.15;100.00
69766;BME280;57039;48.014;21.384;2024-03-02T01:23:27;99996.41;;;11.17;100.00
69766;BME280;57039;48.014;21.384;2024-03-02T01:24:30;99995.56;;;11.16;100.00
69766;BME280;57039;48.014;21.384;2024-03-02T01:25:33;99992.34;;;11.26;100.00
69766;BME280;57039;48.014;21.384;2024-03-02T01:26:36;99987.84;;;11.28;100.00
69766;BME280;57039;48.014;21.384;2024-03-02T01:27:39;99991.19;;;11.30;100.00
69766;BME280;57039;48.014;21.384;2024-03-02T01:28:42;99990.47;;;11.28;100.00
69766;BME280;57039;48.014;21.384;2024-03-02T01:29:45;99993.94;;;11.28;100.00
69766;BME280;57039;48.014;21.384;2024-03-02T01:30:48;99977.81;;;11.20;100.00
69766;BME280;57039;48.014;21.384;2024-03-02T01:31:51;99986.03;;;11.28;100.00
69766;BME280;57039;48.014;21.384;2024-03-02T01:32:54;99988.75;;;11.27;100.00
69766;BME280;57039;48.014;21.384;2024-03-02T01:33:57;99988.75;;;11.27;100.00
69766;BME280;57039;48.014;21.384;2024-03-02T01:35:00;99987.09;;;11.26;100.00
69766;BME280;57039;48.014;21.384;2024-03-02T01:36:03;99994.97;;;11.26;100.00
69766;BME280;57039;48.014;21.384;2024-03-02T01:37:07;100003.59;;;11.28;100.00
69766;BME280;57039;48.014;21.384;2024-03-02T01:38:09;99991.19;;;11.30;100.00
69766;BME280;57039;48.014;21.384;2024-03-02T01:39:12;99985.00;;;11.31;100.00
69766;BME280;57039;48.014;21.384;2024-03-02T01:40:15;99987.84;;;11.28;100.00
69766;BME280;57039;48.014;21.384;2024-03-02T01:41:18;99986.34;;;11.24;100.00
69766;BME280;57039;48.014;21.384;2024-03-02T01:42:21;99983.63;;;11.25;100.00
69766;BME280;57039;48.014;21.384;2024-03-02T01:43:25;99988.22;;;11.22;100.00
69766;BME280;57039;48.014;21.384;2024-03-02T01:44:28;100005.56;;;11.24;100.00
69766;BME280;57039;48.014;21.384;2024-03-02T01:45:32;100002.00;;;11.25;100.00
69766;BME280;57039;48.014;21.384;2024-03-02T01:46:35;99991.50;;;11.25;100.00
69766;BME280;57039;48.014;21.384;2024-03-02T01:47:38;99993.47;;;11.22;100.00
69766;BME280;57039;48.014;21.384;2024-03-02T01:48:41;99991.78;;;11.20;100.00
69766;BME280;57039;48.014;21.384;2024-03-02T01:49:44;99980.25;;;11.23;100.00
69766;BME280;57039;48.014;21.384;2024-03-02T01:50:47;99987.28;;;11.23;100.00
69766;BME280;57039;48.014;21.384;2024-03-02T01:51:50;99977.19;;;11.16;100.00
69766;BME280;57039;48.014;21.384;2024-03-02T01:52:57;99986.34;;;11.24;100.00
69766;BME280;57039;48.014;21.384;2024-03-02T01:54:00;99988.00;;;11.25;100.00
69766;BME280;57039;48.014;21.384;2024-03-02T01:55:04;99982.97;;;11.22;100.00
69766;BME280;57039;48.014;21.384;2024-03-02T01:56:07;99978.56;;;11.22;100.00
69766;BME280;57039;48.014;21.384;2024-03-02T01:57:10;99982.03;;;11.23;100.00
69766;BME280;57039;48.014;21.384;2024-03-02T01:58:13;99981.19;;;11.22;100.00
69766;BME280;57039;48.014;21.384;2024-03-02T01:59:16;99976.78;;;11.23;100.00
69766;BME280;57039;48.014;21.384;2024-03-02T02:00:20;99979.41;;;11.23;100.00
69766;BME280;57039;48.014;21.384;2024-03-02T02:01:23;99977.72;;;11.22;100.00
69766;BME280;57039;48.014;21.384;2024-03-02T02:02:26;99976.25;;;11.17;100.00
69766;BME280;57039;48.014;21.384;2024-03-02T02:03:29;99979.19;;;11.13;100.00
69766;BME280;57039;48.014;21.384;2024-03-02T02:04:33;99980.03;;;11.13;100.00
69766;BME280;57039;48.014;21.384;2024-03-02T02:05:37;99974.56;;;11.16;100.00
69766;BME280;57039;48.014;21.384;2024-03-02T02:06:40;99980.53;;;11.18;100.00
69766;BME280;57039;48.014;21.384;2024-03-02T02:07:43;99975.41;;;11.17;100.00
69766;BME280;57039;48.014;21.384;2024-03-02T02:08:46;99973.81;;;11.14;100.00
69766;BME280;57039;48.014;21.384;2024-03-02T02:09:49;99964.47;;;11.10;100.00
69766;BME280;57039;48.014;21.384;2024-03-02T02:10:52;99971.09;;;11.16;100.00
69766;BME280;57039;48.014;21.384;2024-03-02T02:11:56;99969.31;;;11.16;100.00
69766;BME280;57039;48.014;21.384;2024-03-02T02:12:59;99972.66;;;11.18;100.00
69766;BME280;57039;48.014;21.384;2024-03-02T02:14:02;99971.75;;;11.19;100.00
69766;BME280;57039;48.014;21.384;2024-03-02T02:15:28;99925.47;;;10.91;100.00
69766;BME280;57039;48.014;21.384;2024-03-02T02:16:31;99970.16;;;11.17;100.00
69766;BME280;57039;48.014;21.384;2024-03-02T02:17:34;99981.50;;;11.17;100.00
69766;BME280;57039;48.014;21.384;2024-03-02T02:18:37;99983.16;;;11.18;100.00
69766;BME280;57039;48.014;21.384;2024-03-02T02:19:41;99971.59;;;11.08;100.00
69766;BME280;57039;48.014;21.384;2024-03-02T02:20:44;99987.69;;;11.16;100.00
69766;BME280;57039;48.014;21.384;2024-03-02T02:21:46;99993.16;;;11.13;100.00
69766;BME280;57039;48.014;21.384;2024-03-02T02:23:03;99987.78;;;11.15;100.00
69766;BME280;57039;48.014;21.384;2024-03-02T02:24:07;99992.19;;;11.14;100.00
69766;BME280;57039;48.014;21.384;2024-03-02T02:25:10;99989.50;;;11.16;100.00
69766;BME280;57039;48.014;21.384;2024-03-02T02:26:12;99950.97;;;10.89;100.00
69766;BME280;57039;48.014;21.384;2024-03-02T02:27:15;99992.19;;;11.14;100.00
69766;BME280;57039;48.014;21.384;2024-03-02T02:28:19;99984.31;;;11.14;100.00
69766;BME280;57039;48.014;21.384;2024-03-02T02:29:21;99982.66;;;11.13;100.00
69766;BME280;57039;48.014;21.384;2024-03-02T02:30:29;99984.44;;;11.13;100.00
69766;BME280;57039;48.014;21.384;2024-03-02T02:31:42;99975.59;;;11.14;100.00
69766;BME280;57039;48.014;21.384;2024-03-02T02:32:45;99977.47;;;11.12;100.00
69766;BME280;57039;48.014;21.384;2024-03-02T02:33:48;99956.25;;;11.02;100.00
69766;BME280;57039;48.014;21.384;2024-03-02T02:34:54;99975.81;;;11.11;100.00
69766;BME280;57039;48.014;21.384;2024-03-02T02:35:56;99964.47;;;11.10;100.00
69766;BME280;57039;48.014;21.384;2024-03-02T02:37:00;99957.72;;;11.06;100.00
69766;BME280;57039;48.014;21.384;2024-03-02T02:38:03;99950.41;;;11.11;100.00
69766;BME280;57039;48.014;21.384;2024-03-02T02:39:10;99953.84;;;11.12;100.00
69766;BME280;57039;48.014;21.384;2024-03-02T02:40:15;99953.03;;;11.11;100.00
69766;BME280;57039;48.014;21.384;2024-03-02T02:41:18;99953.13;;;11.10;100.00
69766;BME280;57039;48.014;21.384;2024-03-02T02:42:20;99960.06;;;11.11;100.00
69766;BME280;57039;48.014;21.384;2024-03-02T02:43:23;99956.59;;;11.10;100.00
69766;BME280;57039;48.014;21.384;2024-03-02T02:44:26;99958.28;;;11.11;100.00
69766;BME280;57039;48.014;21.384;2024-03-02T02:45:29;99958.28;;;11.11;100.00
69766;BME280;57039;48.014;21.384;2024-03-02T02:46:33;99953.78;;;11.13;100.00
69766;BME280;57039;48.014;21.384;2024-03-02T02:47:35;99960.91;;;11.11;100.00
69766;BME280;57039;48.014;21.384;2024-03-02T02:48:38;99959.09;;;11.12;100.00
69766;BME280;57039;48.014;21.384;2024-03-02T02:49:41;99956.69;;;11.09;100.00
69766;BME280;57039;48.014;21.384;2024-03-02T02:50:44;99959.31;;;11.09;100.00
69766;BME280;57039;48.014;21.384;2024-03-02T02:51:47;99961.94;;;11.09;100.00
69766;BME280;57039;48.014;21.384;2024-03-02T02:52:50;99961.09;;;11.08;100.00
69766;BME280;57039;48.014;21.384;2024-03-02T02:53:53;99961.94;;;11.09;100.00
69766;BME280;57039;48.014;21.384;2024-03-02T02:54:56;99958.28;;;11.11;100.00
69766;BME280;57039;48.014;21.384;2024-03-02T02:55:59;99960.06;;;11.11;100.00
69766;BME280;57039;48.014;21.384;2024-03-02T02:57:02;99954.06;;;11.09;100.00
69766;BME280;57039;48.014;21.384;2024-03-02T02:58:05;99962.78;;;11.09;100.00
69766;BME280;57039;48.014;21.384;2024-03-02T02:59:08;99957.53;;;11.09;100.00
69766;BME280;57039;48.014;21.384;2024-03-02T03:00:13;99953.44;;;11.05;100.00
69766;BME280;57039;48.014;21.384;2024-03-02T03:01:21;99960.06;;;11.11;100.00
69766;BME280;57039;48.014;21.384;2024-03-02T03:02:24;99968.03;;;11.09;100.00
69766;BME280;57039;48.014;21.384;2024-03-02T03:03:30;99964.47;;;11.10;100.00
69766;BME280;57039;48.014;21.384;2024-03-02T03:04:33;99980.22;;;11.10;100.00
69766;BME280;57039;48.014;21.384;2024-03-02T03:05:36;99972.34;;;11.10;100.00
69766;BME280;57039;48.014;21.384;2024-03-02T03:06:39;99974.97;;;11.10;100.00
69766;BME280;57039;48.014;21.384;2024-03-02T03:07:42;99974.12;;;11.10;100.00
69766;BME280;57039;48.014;21.384;2024-03-02T03:08:47;99957.41;;;10.98;100.00
69766;BME280;57039;48.014;21.384;2024-03-02T03:09:50;99969.94;;;11.07;100.00
69766;BME280;57039;48.014;21.384;2024-03-02T03:10:53;99966.00;;;11.00;100.00
69766;BME280;57039;48.014;21.384;2024-03-02T03:11:56;99982.84;;;11.10;100.00
69766;BME280;57039;48.014;21.384;2024-03-02T03:12:59;99981.06;;;11.11;100.00
69766;BME280;57039;48.014;21.384;2024-03-02T03:14:02;99962.87;;;11.08;100.00
69766;BME280;57039;48.014;21.384;2024-03-02T03:15:05;99972.88;;;11.15;100.00
69766;BME280;57039;48.014;21.384;2024-03-02T03:16:10;99943.22;;;11.01;100.00
69766;BME280;57039;48.014;21.384;2024-03-02T03:17:12;99971.19;;;11.14;100.00
69766;BME280;57039;48.014;21.384;2024-03-02T03:18:15;99966.78;;;11.15;100.00
69766;BME280;57039;48.014;21.384;2024-03-02T03:19:18;99972.78;;;11.17;100.00
69766;BME280;57039;48.014;21.384;2024-03-02T03:20:20;99967.62;;;11.15;100.00
69766;BME280;57039;48.014;21.384;2024-03-02T03:21:24;99967.62;;;11.15;100.00
69766;BME280;57039;48.014;21.384;2024-03-02T03:22:27;99967.81;;;11.12;100.00
69766;BME280;57039;48.014;21.384;2024-03-02T03:23:30;99973.94;;;11.13;100.00
69766;BME280;57039;48.014;21.384;2024-03-02T03:24:33;99971.31;;;11.13;100.00
69766;BME280;57039;48.014;21.384;2024-03-02T03:25:36;99967.81;;;11.12;100.00
69766;BME280;57039;48.014;21.384;2024-03-02T03:26:39;99963.63;;;11.10;100.00
69766;BME280;57039;48.014;21.384;2024-03-02T03:27:41;99924.06;;;10.86;100.00
69766;BME280;57039;48.014;21.384;2024-03-02T03:28:44;99966.34;;;11.08;100.00
69766;BME280;57039;48.014;21.384;2024-03-02T03:29:47;99960.25;;;11.08;100.00
69766;BME280;57039;48.014;21.384;2024-03-02T03:30:50;99962.06;;;11.07;100.00
69766;BME280;57039;48.014;21.384;2024-03-02T03:31:53;99961.09;;;11.08;100.00
69766;BME280;57039;48.014;21.384;2024-03-02T03:32:56;99968.03;;;11.09;100.00
69766;BME280;57039;48.014;21.384;2024-03-02T03:33:59;99973.47;;;11.06;100.00
69766;BME280;57039;48.014;21.384;2024-03-02T03:35:03;99973.28;;;11.09;100.00
69766;BME280;57039;48.014;21.384;2024-03-02T03:36:06;99966.25;;;11.10;100.00
69766;BME280;57039;48.014;21.384;2024-03-02T03:37:10;99964.69;;;11.07;100.00
69766;BME280;57039;48.014;21.384;2024-03-02T03:38:12;99967.19;;;11.09;100.00
69766;BME280;57039;48.014;21.384;2024-03-02T03:39:15;99969.72;;;11.10;100.00
69766;BME280;57039;48.014;21.384;2024-03-02T03:40:18;99959.31;;;11.09;100.00
69766;BME280;57039;48.014;21.384;2024-03-02T03:41:21;99956.59;;;11.10;100.00
69766;BME280;57039;48.014;21.384;2024-03-02T03:42:24;99958.38;;;11.10;100.00
69766;BME280;57039;48.014;21.384;2024-03-02T03:43:27;99958.38;;;11.10;100.00
69766;BME280;57039;48.014;21.384;2024-03-02T03:44:29;99964.56;;;11.09;100.00
69766;BME280;57039;48.014;21.384;2024-03-02T03:45:32;99951.22;;;10.99;100.00
69766;BME280;57039;48.014;21.384;2024-03-02T03:46:35;99956.06;;;11.05;100.00
69766;BME280;57039;48.014;21.384;2024-03-02T03:47:39;99962.06;;;11.07;100.00
69766;BME280;57039;48.014;21.384;2024-03-02T03:48:42;99952.47;;;11.06;100.00
69766;BME280;57039;48.014;21.384;2024-03-02T03:49:45;99952.47;;;11.06;100.00
69766;BME280;57039;48.014;21.384;2024-03-02T03:50:48;99947.22;;;11.06;100.00
69766;BME280;57039;48.014;21.384;2024-03-02T03:51:51;99949.13;;;11.04;100.00
69766;BME280;57039;48.014;21.384;2024-03-02T03:52:54;99951.62;;;11.06;100.00
69766;BME280;57039;48.014;21.384;2024-03-02T03:53:57;99956.06;;;11.05;100.00
69766;BME280;57039;48.014;21.384;2024-03-02T03:55:00;99913.25;;;10.78;100.00
69766;BME280;57039;48.014;21.384;2024-03-02T03:56:03;99956.06;;;11.05;100.00
69766;BME280;57039;48.014;21.384;2024-03-02T03:57:06;99950.81;;;11.05;100.00
69766;BME280;57039;48.014;21.384;2024-03-02T03:58:09;99881.59;;;10.54;100.00
69766;BME280;57039;48.014;21.384;2024-03-02T03:59:12;99954.19;;;11.07;100.00
69766;BME280;57039;48.014;21.384;2024-03-02T04:00:15;99965.50;;;11.08;100.00
69766;BME280;57039;48.014;21.384;2024-03-02T04:01:19;99965.50;;;11.08;100.00
69766;BME280;57039;48.014;21.384;2024-03-02T04:02:22;99962.97;;;11.06;100.00
69766;BME280;57039;48.014;21.384;2024-03-02T04:03:27;99967.50;;;11.04;100.00
69766;BME280;57039;48.014;21.384;2024-03-02T04:04:30;99962.13;;;11.06;100.00
69766;BME280;57039;48.014;21.384;2024-03-02T04:05:33;99965.50;;;11.08;100.00
69766;BME280;57039;48.014;21.384;2024-03-02T04:06:36;99962.13;;;11.06;100.00
69766;BME280;57039;48.014;21.384;2024-03-02T04:07:38;99959.50;;;11.06;100.00
69766;BME280;57039;48.014;21.384;2024-03-02T04:08:43;99952.38;;;11.08;100.00
69766;BME280;57039;48.014;21.384;2024-03-02T04:09:46;99955.09;;;11.06;100.00
69766;BME280;57039;48.014;21.384;2024-03-02T04:10:49;99962.97;;;11.06;100.00
69766;BME280;57039;48.014;21.384;2024-03-02T04:11:52;99962.13;;;11.06;100.00
69766;BME280;57039;48.014;21.384;2024-03-02T04:12:55;99966.56;;;11.05;100.00
69766;BME280;57039;48.014;21.384;2024-03-02T04:13:58;99959.44;;;11.07;100.00
69766;BME280;57039;48.014;21.384;2024-03-02T04:15:00;99974.22;;;11.08;100.00
69766;BME280;57039;48.014;21.384;2024-03-02T04:16:04;99977.13;;;11.04;100.00
69766;BME280;57039;48.014;21.384;2024-03-02T04:17:08;99977.06;;;11.05;100.00
69766;BME280;57039;48.014;21.384;2024-03-02T04:18:10;99981.25;;;11.08;100.00
69766;BME280;57039;48.014;21.384;2024-03-02T04:19:14;99983.97;;;11.06;100.00
69766;BME280;57039;48.014;21.384;2024-03-02T04:20:16;99986.59;;;11.06;100.00
69766;BME280;57039;48.014;21.384;2024-03-02T04:21:19;99985.87;;;11.04;100.00
69766;BME280;57039;48.014;21.384;2024-03-02T04:22:22;99987.75;;;11.02;100.00
69766;BME280;57039;48.014;21.384;2024-03-02T04:23:27;99989.44;;;11.03;100.00
69766;BME280;57039;48.014;21.384;2024-03-02T04:24:30;99974.91;;;10.97;100.00
69766;BME280;57039;48.014;21.384;2024-03-02T04:25:35;99988.50;;;11.04;100.00
69766;BME280;57039;48.014;21.384;2024-03-02T04:26:38;99985.87;;;11.04;100.00
69766;BME280;57039;48.014;21.384;2024-03-02T04:27:41;99986.72;;;11.05;100.00
69766;BME280;57039;48.014;21.384;2024-03-02T04:28:44;99979.31;;;10.97;100.00
69766;BME280;57039;48.014;21.384;2024-03-02T04:29:47;99982.50;;;11.02;100.00
69766;BME280;57039;48.014;21.384;2024-03-02T04:30:50;99980.28;;;10.96;100.00
69766;BME280;57039;48.014;21.384;2024-03-02T04:31:53;99977.66;;;10.96;100.00
69766;BME280;57039;48.014;21.384;2024-03-02T04:32:57;99982.50;;;11.02;100.00
69766;BME280;57039;48.014;21.384;2024-03-02T04:34:00;99993.00;;;11.02;100.00
69766;BME280;57039;48.014;21.384;2024-03-02T04:35:03;99984.19;;;11.03;100.00
69766;BME280;57039;48.014;21.384;2024-03-02T04:36:11;99993.00;;;11.02;100.00
69766;BME280;57039;48.014;21.384;2024-03-02T04:37:15;99983.66;;;10.98;100.00
69766;BME280;57039;48.014;21.384;2024-03-02T04:38:20;99991.13;;;11.04;100.00
69766;BME280;57039;48.014;21.384;2024-03-02T04:39:25;99993.00;;;11.02;100.00
69766;BME280;57039;48.014;21.384;2024-03-02T04:40:28;99988.59;;;11.03;100.00
69766;BME280;57039;48.014;21.384;2024-03-02T04:41:31;99990.38;;;11.02;100.00
69766;BME280;57039;48.014;21.384;2024-03-02T04:42:34;99932.22;;;10.68;100.00
69766;BME280;57039;48.014;21.384;2024-03-02T04:43:38;99980.09;;;10.99;100.00
69766;BME280;57039;48.014;21.384;2024-03-02T04:44:41;99972.81;;;10.90;100.00
69766;BME280;57039;48.014;21.384;2024-03-02T04:45:43;100001.72;;;11.03;100.00
69766;BME280;57039;48.014;21.384;2024-03-02T04:46:46;99987.75;;;11.02;100.00
69766;BME280;57039;48.014;21.384;2024-03-02T04:47:49;99986.09;;;11.01;100.00
69766;BME280;57039;48.014;21.384;2024-03-02T04:48:53;99989.62;;;11.00;100.00
69766;BME280;57039;48.014;21.384;2024-03-02T04:49:58;99996.66;;;11.00;100.00
69766;BME280;57039;48.014;21.384;2024-03-02T04:51:01;99999.28;;;11.00;100.00
69766;BME280;57039;48.014;21.384;2024-03-02T04:52:04;100001.91;;;11.00;100.00
69766;BME280;57039;48.014;21.384;2024-03-02T04:53:07;100000.31;;;10.97;100.00
69766;BME280;57039;48.014;21.384;2024-03-02T04:54:10;100003.16;;;10.94;100.00
69766;BME280;57039;48.014;21.384;2024-03-02T04:55:14;100005.78;;;10.94;100.00
69766;BME280;57039;48.014;21.384;2024-03-02T04:56:32;100002.22;;;10.95;100.00
69766;BME280;57039;48.014;21.384;2024-03-02T04:57:34;99996.97;;;10.95;100.00
69766;BME280;57039;48.014;21.384;2024-03-02T04:58:38;100004.09;;;10.93;100.00
69766;BME280;57039;48.014;21.384;2024-03-02T04:59:41;100006.94;;;10.90;100.00
69766;BME280;57039;48.014;21.384;2024-03-02T05:00:44;99998.69;;;10.82;100.00
69766;BME280;57039;48.014;21.384;2024-03-02T05:01:49;99997.94;;;10.80;100.00
69766;BME280;57039;48.014;21.384;2024-03-02T05:02:51;99998.72;;;10.67;100.00
69766;BME280;57039;48.014;21.384;2024-03-02T05:03:54;100003.25;;;10.65;100.00
69766;BME280;57039;48.014;21.384;2024-03-02T05:04:57;100001.66;;;10.63;100.00
69766;BME280;57039;48.014;21.384;2024-03-02T05:06:00;100000.63;;;10.65;100.00
69766;BME280;57039;48.014;21.384;2024-03-02T05:07:03;100006.81;;;10.64;100.00
69766;BME280;57039;48.014;21.384;2024-03-02T05:08:05;100011.53;;;10.59;100.00
69766;BME280;57039;48.014;21.384;2024-03-02T05:09:09;100015.25;;;10.55;100.00
69766;BME280;57039;48.014;21.384;2024-03-02T05:10:12;100017.22;;;10.51;100.00
69766;BME280;57039;48.014;21.384;2024-03-02T05:11:14;100024.06;;;10.54;100.00
69766;BME280;57039;48.014;21.384;2024-03-02T05:12:36;100018.62;;;10.57;100.00
69766;BME280;57039;48.014;21.384;2024-03-02T05:13:45;100020.59;;;10.54;100.00
69766;BME280;57039;48.014;21.384;2024-03-02T05:14:48;100016.19;;;10.54;100.00
69766;BME280;57039;48.014;21.384;2024-03-02T05:15:51;100010.19;;;10.52;100.00
69766;BME280;57039;48.014;21.384;2024-03-02T05:16:54;100010.41;;;10.49;100.00
69766;BME280;57039;48.014;21.384;2024-03-02T05:17:56;100021.00;;;10.47;100.00
69766;BME280;57039;48.014;21.384;2024-03-02T05:19:00;100013.31;;;10.44;100.00
69766;BME280;57039;48.014;21.384;2024-03-02T05:20:04;100016.47;;;10.49;100.00
69766;BME280;57039;48.014;21.384;2024-03-02T05:21:09;100019.66;;;10.40;100.00
69766;BME280;57039;48.014;21.384;2024-03-02T05:22:12;100018.00;;;10.39;100.00
69766;BME280;57039;48.014;21.384;2024-03-02T05:23:14;100019.03;;;10.37;100.00
69766;BME280;57039;48.014;21.384;2024-03-02T05:24:17;100024.09;;;10.40;100.00
69766;BME280;57039;48.014;21.384;2024-03-02T05:25:20;100026.06;;;10.36;100.00
69766;BME280;57039;48.014;21.384;2024-03-02T05:26:24;100022.59;;;10.50;100.00
69766;BME280;57039;48.014;21.384;2024-03-02T05:27:27;100024.25;;;10.51;100.00
69766;BME280;57039;48.014;21.384;2024-03-02T05:28:30;100014.25;;;10.43;100.00
69766;BME280;57039;48.014;21.384;2024-03-02T05:29:33;100024.44;;;10.48;100.00
69766;BME280;57039;48.014;21.384;2024-03-02T05:30:35;100026.81;;;10.38;100.00